Clyde, Iowa
Current Conditions -  °F | °C
As of 12:53 PM on Friday 24 Oct 2014 (Local Time) from KAMW Reporting Station
Haze Haze  
Wind Chill: 17°   Ceiling: 600
Heat Index: 17°   Visibility: 3mi
Dew Point: 15°   Wind: 8mph
Humidity: 90%   Direction: 200°SSW
Pressure: 29.92"   Gusts: NA
Location:  41.9063°N, 93.2893°W
Report Text: KAMW 241753Z AUTO 20007KT 3SM BR OVC006 17/15 A2992 RMK AO2 SLP131 T01670150 10167 20122 58010
Loading
Personal Weather Stations






























Interactive Weather Map
Tropical Storm Tracking
New forecast layout! Learn more

10-Day Weather Forecast

Advertisements
Track Severe Weather on mobile